createdAt,value
2018-04-21T00:00:41.473Z,2.03
2018-04-21T00:03:08.968Z,2.10
2018-04-21T00:05:36.493Z,1.73
2018-04-21T00:08:03.985Z,1.67
2018-04-21T00:10:31.897Z,1.87
2018-04-21T00:12:59.442Z,1.70
2018-04-21T00:15:26.977Z,1.90
2018-04-21T00:17:54.484Z,1.83
2018-04-21T00:20:22.008Z,1.97
2018-04-21T00:22:49.512Z,1.93
2018-04-21T00:25:17.038Z,2.00
2018-04-21T00:27:44.537Z,2.20
2018-04-21T00:30:12.233Z,2.23
2018-04-21T00:32:39.767Z,2.33
2018-04-21T00:35:07.305Z,2.17
2018-04-21T00:37:34.809Z,2.10
2018-04-21T00:40:02.350Z,1.77
2018-04-21T00:45:04.001Z,1.80
2018-04-21T00:47:31.776Z,1.80
2018-04-21T00:49:59.393Z,2.20
2018-04-21T00:52:27.083Z,1.80
2018-04-21T00:54:54.751Z,2.13
2018-04-21T00:57:22.276Z,2.20
2018-04-21T00:59:50.171Z,2.20
2018-04-21T01:02:17.701Z,2.10
2018-04-21T01:04:45.385Z,1.77
2018-04-21T01:07:12.921Z,1.43
2018-04-21T01:09:40.481Z,1.70
2018-04-21T01:12:08.146Z,1.93
2018-04-21T01:14:35.668Z,1.70
2018-04-21T01:17:03.163Z,2.00
2018-04-21T01:19:30.720Z,1.87
2018-04-21T01:21:58.221Z,2.30
2018-04-21T01:24:25.840Z,1.77
2018-04-21T01:26:53.342Z,2.03
2018-04-21T01:29:20.857Z,1.80
2018-04-21T01:31:48.362Z,2.10
2018-04-21T01:34:16.058Z,2.30
2018-04-21T01:36:43.573Z,1.83
2018-04-21T01:39:11.174Z,2.27
2018-04-21T01:41:38.688Z,2.00
2018-04-21T01:44:06.600Z,1.97
2018-04-21T01:46:34.160Z,2.20
2018-04-21T01:49:01.689Z,2.17
2018-04-21T01:51:29.288Z,1.63
2018-04-21T01:53:56.794Z,2.10
2018-04-21T01:56:24.712Z,2.00
2018-04-21T01:58:52.221Z,2.80
2018-04-21T02:01:19.749Z,2.13
2018-04-21T02:03:47.252Z,2.10
2018-04-21T02:06:14.814Z,2.43
2018-04-21T02:08:42.452Z,2.10
2018-04-21T02:11:09.970Z,2.63
2018-04-21T02:13:37.483Z,3.33
2018-04-21T02:16:05.013Z,2.67
2018-04-21T02:18:32.680Z,2.27
2018-04-21T02:21:00.205Z,2.23
2018-04-21T02:23:28.213Z,2.63
2018-04-21T02:25:55.729Z,2.67
2018-04-21T02:28:23.656Z,2.13
2018-04-21T02:30:51.156Z,3.53
2018-04-21T02:33:18.677Z,2.50
2018-04-21T02:35:46.187Z,2.30
2018-04-21T02:38:13.745Z,1.87
2018-04-21T02:40:41.255Z,2.03
2018-04-21T02:43:08.777Z,2.30
2018-04-21T02:45:36.284Z,2.23
2018-04-21T02:48:03.980Z,1.97
2018-04-21T02:50:31.497Z,2.30
2018-04-21T02:52:59.408Z,2.27
2018-04-21T02:55:26.904Z,2.37
2018-04-21T02:57:54.624Z,2.03
2018-04-21T03:00:22.145Z,2.40
2018-04-21T03:02:50.049Z,2.43
2018-04-21T03:05:17.562Z,2.20
2018-04-21T03:07:45.237Z,2.30
2018-04-21T03:10:12.732Z,2.37
2018-04-21T03:12:40.231Z,2.27
2018-04-21T03:15:08.161Z,2.43
2018-04-21T03:17:35.682Z,2.00
2018-04-21T03:20:03.336Z,2.00
2018-04-21T03:22:30.833Z,2.27
2018-04-21T03:24:58.457Z,2.30
2018-04-21T03:27:25.963Z,1.93
2018-04-21T03:29:53.888Z,2.00
2018-04-21T03:32:21.384Z,1.70
2018-04-21T03:34:48.929Z,1.90
2018-04-21T03:37:16.441Z,1.87
2018-04-21T03:39:43.988Z,1.87
2018-04-21T03:42:11.647Z,1.83
2018-04-21T03:44:39.186Z,1.80
2018-04-21T03:47:06.710Z,1.80
2018-04-21T03:49:34.207Z,2.13
2018-04-21T03:52:01.725Z,1.77
2018-04-21T03:54:29.241Z,1.93
2018-04-21T03:56:56.780Z,2.27
2018-04-21T03:59:24.293Z,2.10
2018-04-21T04:01:52.229Z,2.27
2018-04-21T04:04:19.724Z,2.23
2018-04-21T04:06:47.251Z,2.30
2018-04-21T04:09:14.781Z,2.40
2018-04-21T04:11:42.314Z,2.00
2018-04-21T04:14:21.565Z,2.00
2018-04-21T04:17:01.157Z,2.60
2018-04-21T04:19:40.563Z,2.93
2018-04-21T04:25:22.934Z,2.00
2018-04-21T04:27:50.599Z,2.80
2018-04-21T04:30:18.102Z,2.00
2018-04-21T04:32:45.629Z,1.90
2018-04-21T04:35:13.121Z,2.53
2018-04-21T04:37:40.644Z,1.97
2018-04-21T04:40:08.282Z,2.63
2018-04-21T04:42:35.821Z,2.40
2018-04-21T04:45:03.320Z,2.63
2018-04-21T04:47:30.837Z,2.00
2018-04-21T04:49:58.509Z,2.47
2018-04-21T04:52:26.009Z,2.07
2018-04-21T04:54:53.616Z,2.17
2018-04-21T04:57:21.045Z,2.20
2018-04-21T04:59:48.571Z,2.23
2018-04-21T05:02:16.073Z,2.10
2018-04-21T05:04:43.649Z,2.13
2018-04-21T05:07:11.148Z,1.90
2018-04-21T05:09:38.673Z,1.90
2018-04-21T05:12:06.176Z,1.87
2018-04-21T05:14:33.873Z,2.20
2018-04-21T05:17:01.383Z,2.10
2018-04-21T05:19:28.900Z,2.60
2018-04-21T05:21:56.402Z,2.00
2018-04-21T05:24:23.928Z,2.37
2018-04-21T05:26:51.523Z,2.30
2018-04-21T05:29:19.207Z,2.15
2018-04-21T05:31:46.857Z,2.10
2018-04-21T05:34:14.356Z,2.03
2018-04-21T05:36:41.879Z,2.25
2018-04-21T05:39:09.427Z,2.00
2018-04-21T05:41:36.961Z,1.98
2018-04-21T05:44:04.965Z,2.03
2018-04-21T05:46:32.624Z,1.75
2018-04-21T05:49:00.141Z,1.85
2018-04-21T05:51:28.057Z,1.92
2018-04-21T05:53:55.569Z,1.80
2018-04-21T05:56:23.267Z,1.60
2018-04-21T05:58:50.901Z,1.75
2018-04-21T06:01:18.429Z,1.65
2018-04-21T06:03:46.332Z,2.12
2018-04-21T06:06:13.885Z,1.40
2018-04-21T06:08:41.556Z,1.58
2018-04-21T06:11:09.069Z,1.65
2018-04-21T06:13:36.659Z,1.60
2018-04-21T06:16:04.198Z,1.65
2018-04-21T06:18:31.702Z,1.62
2018-04-21T06:20:59.219Z,1.62
2018-04-21T06:23:26.745Z,1.80
2018-04-21T06:25:54.749Z,1.40
2018-04-21T06:28:22.274Z,1.20
2018-04-21T06:30:50.176Z,1.12
2018-04-21T06:33:17.713Z,1.37
2018-04-21T06:35:45.220Z,1.35
2018-04-21T06:38:12.753Z,1.50
2018-04-21T06:40:40.271Z,1.85
2018-04-21T06:43:07.792Z,1.23
2018-04-21T06:45:35.300Z,1.48
2018-04-21T06:48:02.847Z,1.45
2018-04-21T06:50:30.363Z,1.50
2018-04-21T06:52:58.302Z,1.50
2018-04-21T06:55:25.801Z,1.40
2018-04-21T06:57:53.720Z,1.67
2018-04-21T07:00:21.222Z,1.37
2018-04-21T07:02:49.134Z,1.40
2018-04-21T07:05:16.771Z,1.70
2018-04-21T07:07:44.316Z,1.65
2018-04-21T07:10:11.989Z,1.40
2018-04-21T07:12:39.496Z,1.30
2018-04-21T07:15:07.029Z,1.87
2018-04-21T07:17:34.556Z,1.65
2018-04-21T07:20:02.082Z,1.70
2018-04-21T07:22:29.985Z,2.25
2018-04-21T07:24:57.513Z,1.70
2018-04-21T07:27:25.187Z,1.75
2018-04-21T07:29:52.850Z,1.50
2018-04-21T07:32:20.357Z,1.33
2018-04-21T07:34:47.881Z,1.58
2018-04-21T07:37:15.412Z,1.62
2018-04-21T07:39:42.938Z,1.80
2018-04-21T07:42:10.846Z,1.60
2018-04-21T07:44:38.359Z,1.48
2018-04-21T07:47:06.062Z,2.30
2018-04-21T07:49:33.701Z,1.60
2018-04-21T07:52:01.232Z,1.83
2018-04-21T07:54:29.130Z,2.00
2018-04-21T07:56:56.682Z,1.67
2018-04-21T07:59:24.192Z,1.92
2018-04-21T08:01:51.720Z,1.80
2018-04-21T08:04:19.220Z,1.95
2018-04-21T08:06:46.748Z,2.22
2018-04-21T08:09:14.262Z,2.10
2018-04-21T08:11:41.926Z,2.35
2018-04-21T08:14:09.453Z,2.40
2018-04-21T08:16:36.957Z,2.03
2018-04-21T08:19:04.503Z,2.00
2018-04-21T08:21:32.063Z,2.12
2018-04-21T08:23:59.693Z,2.28
2018-04-21T08:26:27.202Z,1.98
2018-04-21T08:28:54.720Z,2.40
2018-04-21T08:31:22.252Z,3.00
2018-04-21T08:33:49.778Z,2.85
2018-04-21T08:36:17.289Z,2.40
2018-04-21T08:38:44.821Z,2.20
2018-04-21T08:41:12.338Z,2.55
2018-04-21T08:43:39.886Z,2.40
2018-04-21T08:46:07.401Z,2.42
2018-04-21T08:48:34.959Z,2.22
2018-04-21T08:51:02.517Z,2.67
2018-04-21T08:53:30.072Z,2.92
2018-04-21T08:55:57.569Z,2.47
2018-04-21T08:58:25.073Z,2.50
2018-04-21T09:00:52.612Z,2.80
2018-04-21T09:03:20.540Z,4.03
2018-04-21T09:05:48.061Z,3.40
2018-04-21T09:08:16.008Z,3.53
2018-04-21T09:10:43.537Z,2.80
2018-04-21T09:13:11.040Z,3.12
2018-04-21T09:15:38.557Z,3.10
2018-04-21T09:18:06.521Z,4.32
2018-04-21T09:20:34.077Z,3.30
2018-04-21T09:23:01.996Z,3.05
2018-04-21T09:25:29.746Z,3.17
2018-04-21T09:27:57.301Z,4.20
2018-04-21T09:30:24.809Z,4.00
2018-04-21T09:32:52.329Z,3.40
2018-04-21T09:35:19.849Z,5.12
2018-04-21T09:37:47.363Z,6.00
2018-04-21T09:40:14.898Z,6.12
2018-04-21T09:42:42.505Z,5.22
2018-04-21T09:45:10.031Z,4.35
2018-04-21T09:47:37.650Z,4.75
2018-04-21T09:50:05.195Z,3.70
2018-04-21T09:52:32.699Z,3.92
2018-04-21T09:55:00.203Z,4.35
2018-04-21T09:57:27.734Z,4.03
2018-04-21T09:59:55.645Z,3.33
2018-04-21T10:02:23.209Z,3.47
2018-04-21T10:04:50.716Z,3.12
2018-04-21T10:07:18.711Z,3.80
2018-04-21T10:09:46.230Z,3.90
2018-04-21T10:12:14.155Z,4.57
2018-04-21T10:14:41.678Z,5.22
2018-04-21T10:17:09.340Z,5.50
2018-04-21T10:19:36.863Z,5.55
2018-04-21T10:22:04.867Z,3.97
2018-04-21T10:24:32.527Z,3.75
2018-04-21T10:27:00.183Z,4.62
2018-04-21T10:29:27.685Z,5.32
2018-04-21T10:31:55.233Z,4.37
2018-04-21T10:34:22.756Z,4.43
2018-04-21T10:36:50.276Z,4.50
2018-04-21T10:39:18.707Z,4.87
2018-04-21T10:41:46.325Z,4.30
2018-04-21T10:44:13.901Z,4.82
2018-04-21T10:46:41.421Z,3.92
2018-04-21T10:49:08.949Z,5.03
2018-04-21T10:51:36.556Z,3.62
2018-04-21T10:54:04.097Z,4.65
2018-04-21T10:56:32.009Z,3.92
2018-04-21T10:58:59.722Z,3.80
2018-04-21T11:01:27.240Z,4.05
2018-04-21T11:03:54.854Z,3.85
2018-04-21T11:06:22.514Z,4.05
2018-04-21T11:08:50.039Z,4.30
2018-04-21T11:11:18.181Z,3.28
2018-04-21T11:13:45.931Z,3.47
2018-04-21T11:16:13.594Z,4.18
2018-04-21T11:18:41.229Z,3.58
2018-04-21T11:21:08.881Z,3.78
2018-04-21T11:23:36.377Z,3.67
2018-04-21T11:26:03.993Z,3.65
2018-04-21T11:28:31.501Z,3.47
2018-04-21T11:30:59.421Z,3.92
2018-04-21T11:33:26.926Z,3.62
2018-04-21T11:35:54.617Z,3.45
2018-04-21T11:38:22.155Z,4.32
2018-04-21T11:40:50.142Z,4.25
2018-04-21T11:43:17.655Z,3.72
2018-04-21T11:45:45.182Z,4.55
2018-04-21T11:48:12.994Z,4.22
2018-04-21T11:50:41.190Z,3.65
2018-04-21T11:53:08.706Z,3.47
2018-04-21T11:55:36.617Z,3.45
2018-04-21T11:58:04.122Z,3.20
2018-04-21T12:00:31.648Z,3.00
2018-04-21T12:02:59.151Z,3.67
2018-04-21T12:05:27.048Z,3.62
2018-04-21T12:07:54.605Z,3.70
2018-04-21T12:10:22.101Z,3.72
2018-04-21T12:12:49.621Z,3.45
2018-04-21T12:15:17.140Z,3.47
2018-04-21T12:17:44.671Z,3.58
2018-04-21T12:20:12.180Z,3.92
2018-04-21T12:22:39.707Z,3.53
2018-04-21T12:25:07.213Z,3.20
2018-04-21T12:27:34.737Z,3.20
2018-04-21T12:30:02.290Z,3.33
2018-04-21T12:32:29.804Z,2.53
2018-04-21T12:34:57.702Z,3.55
2018-04-21T12:37:25.223Z,3.10
2018-04-21T12:39:52.721Z,3.50
2018-04-21T12:42:20.237Z,3.37
2018-04-21T12:44:47.918Z,3.37
2018-04-21T12:47:15.914Z,4.05
2018-04-21T12:49:43.571Z,3.08
2018-04-21T12:52:11.229Z,4.40
2018-04-21T12:54:38.729Z,3.25
2018-04-21T12:57:06.248Z,3.50
2018-04-21T12:59:33.770Z,3.17
2018-04-21T13:02:01.405Z,2.83
2018-04-21T13:04:28.929Z,2.75
2018-04-21T13:06:56.565Z,2.72
2018-04-21T13:09:24.092Z,2.97
2018-04-21T13:11:51.613Z,3.08
2018-04-21T13:14:19.136Z,2.87
2018-04-21T13:16:46.653Z,3.62
2018-04-21T13:19:14.662Z,2.83
2018-04-21T13:21:42.385Z,2.92
2018-04-21T13:24:10.307Z,3.03
2018-04-21T13:26:37.810Z,3.50
2018-04-21T13:29:05.417Z,3.90
2018-04-21T13:31:32.945Z,2.75
2018-04-21T13:34:00.556Z,3.40
2018-04-21T13:36:28.068Z,2.70
2018-04-21T13:38:56.276Z,4.28
2018-04-21T13:41:23.787Z,4.85
2018-04-21T13:43:51.321Z,2.90
2018-04-21T13:46:19.231Z,3.55
2018-04-21T13:48:46.742Z,2.65
2018-04-21T13:51:14.301Z,3.22
2018-04-21T13:53:41.822Z,3.05
2018-04-21T13:56:09.565Z,2.55
2018-04-21T13:58:37.065Z,2.55
2018-04-21T14:01:05.062Z,3.50
2018-04-21T14:03:32.686Z,2.92
2018-04-21T14:06:00.269Z,3.03
2018-04-21T14:08:27.782Z,2.95
2018-04-21T14:10:55.302Z,3.58
2018-04-21T14:13:22.833Z,2.92
2018-04-21T14:15:50.405Z,17.87
2018-04-21T14:18:17.913Z,3.80
2018-04-21T14:20:45.835Z,2.42
2018-04-21T14:23:13.351Z,2.72
2018-04-21T14:25:40.874Z,2.10
2018-04-21T14:28:08.409Z,3.12
2018-04-21T14:30:35.936Z,3.35
2018-04-21T14:33:03.437Z,5.00
2018-04-21T14:35:30.932Z,3.30
2018-04-21T14:37:58.457Z,2.00
2018-04-21T14:40:25.953Z,2.22
2018-04-21T14:42:53.487Z,2.85
2018-04-21T14:45:21.385Z,2.10
2018-04-21T14:47:48.905Z,2.20
2018-04-21T14:50:16.605Z,2.58
2018-04-21T14:52:44.153Z,3.22
2018-04-21T14:55:11.670Z,2.42
2018-04-21T14:57:39.303Z,2.78
2018-04-21T15:00:06.802Z,3.03
2018-04-21T15:02:34.333Z,2.70
2018-04-21T15:05:02.242Z,2.55
2018-04-21T15:07:29.767Z,2.40
2018-04-21T15:09:57.289Z,2.25
2018-04-21T15:12:24.915Z,2.65
2018-04-21T15:14:52.433Z,2.58
2018-04-21T15:17:20.357Z,2.83
2018-04-21T15:19:47.866Z,2.20
2018-04-21T15:22:15.396Z,3.10
2018-04-21T15:24:43.008Z,2.15
2018-04-21T15:27:10.526Z,2.12
2018-04-21T15:29:38.057Z,2.33
2018-04-21T15:32:05.584Z,3.30
2018-04-21T15:34:33.109Z,2.00
2018-04-21T15:37:00.609Z,1.87
2018-04-21T15:39:28.334Z,2.28
2018-04-21T15:41:56.043Z,2.03
2018-04-21T15:44:23.575Z,2.22
2018-04-21T15:46:51.076Z,2.58
2018-04-21T15:49:18.607Z,2.92
2018-04-21T15:51:46.517Z,2.87
2018-04-21T15:54:14.100Z,2.25
2018-04-21T15:56:41.735Z,2.40
2018-04-21T15:59:09.269Z,2.55
2018-04-21T16:01:37.166Z,2.83
2018-04-21T16:04:04.689Z,2.33
2018-04-21T16:06:32.312Z,3.03
2018-04-21T16:09:00.013Z,2.60
2018-04-21T16:11:27.573Z,2.33
2018-04-21T16:13:55.157Z,1.83
2018-04-21T16:16:22.658Z,2.80
2018-04-21T16:18:50.206Z,2.60
2018-04-21T16:21:17.712Z,2.72
2018-04-21T16:23:45.212Z,2.97
2018-04-21T16:26:12.729Z,2.92
2018-04-21T16:28:40.225Z,2.75
2018-04-21T16:31:07.750Z,2.62
2018-04-21T16:33:35.402Z,2.67
2018-04-21T16:36:03.074Z,2.55
2018-04-21T16:38:30.621Z,2.35
2018-04-21T16:40:58.141Z,3.10
2018-04-21T16:43:26.190Z,4.53
2018-04-21T16:45:53.821Z,2.78
2018-04-21T16:48:21.348Z,2.55
2018-04-21T16:50:48.980Z,3.37
2018-04-21T16:53:16.477Z,3.50
2018-04-21T16:55:44.023Z,2.65
2018-04-21T16:58:11.579Z,2.28
2018-04-21T17:00:39.113Z,2.40
2018-04-21T17:03:06.637Z,3.55
2018-04-21T17:05:34.348Z,2.92
2018-04-21T17:08:01.911Z,3.72
2018-04-21T17:10:29.460Z,3.05
2018-04-21T17:12:57.006Z,2.00
2018-04-21T17:15:24.529Z,3.08
2018-04-21T17:17:52.434Z,1.90
2018-04-21T17:20:20.033Z,2.20
2018-04-21T17:22:47.637Z,3.00
2018-04-21T17:25:15.618Z,3.15
2018-04-21T17:27:43.154Z,5.32
2018-04-21T17:30:10.677Z,2.70
2018-04-21T17:32:38.233Z,2.17
2018-04-21T17:35:05.750Z,2.70
2018-04-21T17:37:33.288Z,2.42
2018-04-21T17:40:00.813Z,2.35
2018-04-21T17:42:28.377Z,1.85
2018-04-21T17:44:56.102Z,2.03
2018-04-21T17:47:23.627Z,2.80
2018-04-21T17:49:51.259Z,2.83
2018-04-21T17:52:18.801Z,2.75
2018-04-21T17:54:46.313Z,2.30
2018-04-21T17:57:13.940Z,2.20
2018-04-21T17:59:41.441Z,2.30
2018-04-21T18:02:08.985Z,4.25
2018-04-21T18:04:36.514Z,2.87
2018-04-21T18:07:04.046Z,2.33
2018-04-21T18:09:31.939Z,2.45
2018-04-21T18:11:59.497Z,2.50
2018-04-21T18:14:27.165Z,1.95
2018-04-21T18:16:55.692Z,2.30
2018-04-21T18:19:23.609Z,2.40
2018-04-21T18:21:51.361Z,3.25
2018-04-21T18:24:19.021Z,3.00
2018-04-21T18:26:46.570Z,3.50
2018-04-21T18:29:14.098Z,3.42
2018-04-21T18:31:41.787Z,3.40
2018-04-21T18:34:09.311Z,3.58
2018-04-21T18:36:37.241Z,3.47
2018-04-21T18:39:04.779Z,3.60
2018-04-21T18:41:32.298Z,3.50
2018-04-21T18:44:00.217Z,3.50
2018-04-21T18:46:28.152Z,3.67
2018-04-21T18:48:55.676Z,3.83
2018-04-21T18:51:23.234Z,3.90
2018-04-21T18:53:50.781Z,4.45
2018-04-21T18:56:18.858Z,4.28
2018-04-21T18:58:46.802Z,4.35
2018-04-21T19:01:14.353Z,10.25
2018-04-21T19:03:41.905Z,6.50
2018-04-21T19:06:09.434Z,6.35
2018-04-21T19:08:36.951Z,5.25
2018-04-21T19:11:04.485Z,4.70
2018-04-21T19:13:32.010Z,5.30
2018-04-21T19:15:59.544Z,5.22
2018-04-21T19:18:27.042Z,5.60
2018-04-21T19:20:54.760Z,5.43
2018-04-21T19:23:22.259Z,5.62
2018-04-21T19:25:49.804Z,5.20
2018-04-21T19:28:17.312Z,5.03
2018-04-21T19:30:44.841Z,4.72
2018-04-21T19:33:12.746Z,5.00
2018-04-21T19:35:40.268Z,5.50
2018-04-21T19:38:08.016Z,5.05
2018-04-21T19:40:35.518Z,5.62
2018-04-21T19:43:03.020Z,5.20
2018-04-21T19:45:30.545Z,4.43
2018-04-21T19:47:58.066Z,4.70
2018-04-21T19:50:25.611Z,6.20
2018-04-21T19:52:53.117Z,5.47
2018-04-21T19:55:20.617Z,6.32
2018-04-21T19:57:48.543Z,5.35
2018-04-21T20:00:16.051Z,5.70
2018-04-21T20:02:43.685Z,5.72
2018-04-21T20:05:11.209Z,5.80
2018-04-21T20:07:38.736Z,5.87
2018-04-21T20:10:06.262Z,5.62
2018-04-21T20:12:33.801Z,5.50
2018-04-21T20:15:01.308Z,5.22
2018-04-21T20:17:28.849Z,5.25
2018-04-21T20:19:56.373Z,5.70
2018-04-21T20:22:24.332Z,5.80
2018-04-21T20:24:51.910Z,5.10
2018-04-21T20:27:19.831Z,5.43
2018-04-21T20:29:47.354Z,4.60
2018-04-21T20:32:14.890Z,5.28
2018-04-21T20:34:42.416Z,4.12
2018-04-21T20:37:09.937Z,5.03
2018-04-21T20:39:37.457Z,4.25
2018-04-21T20:42:05.032Z,4.78
2018-04-21T20:44:32.692Z,4.97
2018-04-21T20:47:00.208Z,5.28
2018-04-21T20:49:27.729Z,5.70
2018-04-21T20:51:55.235Z,5.37
2018-04-21T20:54:22.757Z,4.93
2018-04-21T20:56:50.380Z,5.37
2018-04-21T20:59:18.057Z,4.85
2018-04-21T21:01:45.685Z,4.47
2018-04-21T21:04:13.213Z,4.43
2018-04-21T21:06:41.132Z,4.37
2018-04-21T21:09:08.672Z,4.00
2018-04-21T21:11:36.332Z,4.30
2018-04-21T21:14:03.863Z,4.22
2018-04-21T21:16:31.757Z,4.62
2018-04-21T21:19:00.088Z,4.30
2018-04-21T21:21:34.734Z,5.22
2018-04-21T21:24:02.425Z,4.72
2018-04-21T21:26:32.033Z,4.53
2018-04-21T21:29:02.149Z,4.45
2018-04-21T21:31:29.712Z,4.50
2018-04-21T21:33:57.343Z,5.65
2018-04-21T21:36:24.869Z,4.97
2018-04-21T21:38:52.762Z,5.75
2018-04-21T21:41:20.304Z,5.40
2018-04-21T21:43:47.972Z,5.97
2018-04-21T21:46:15.498Z,4.82
2018-04-21T21:48:43.509Z,4.87
2018-04-21T21:51:11.129Z,5.62
2018-04-21T21:53:38.625Z,4.65
2018-04-21T21:56:06.262Z,4.55
2018-04-21T21:58:33.761Z,4.40
2018-04-21T22:01:01.293Z,4.90
2018-04-21T22:03:28.824Z,5.10
2018-04-21T22:05:56.336Z,5.25
2018-04-21T22:08:23.846Z,6.05
2018-04-21T22:10:51.385Z,6.37
2018-04-21T22:13:18.999Z,6.15
2018-04-21T22:15:46.527Z,5.65
2018-04-21T22:18:14.021Z,5.10
2018-04-21T22:20:41.617Z,5.60
2018-04-21T22:23:09.132Z,4.75
2018-04-21T22:25:36.669Z,4.75
2018-04-21T22:28:04.175Z,4.95
2018-04-21T22:30:31.684Z,5.05
2018-04-21T22:32:59.301Z,4.30
2018-04-21T22:35:26.968Z,4.30
2018-04-21T22:37:54.551Z,4.65
2018-04-21T22:40:22.049Z,5.18
2018-04-21T22:42:49.961Z,4.37
2018-04-21T22:45:17.637Z,4.57
2018-04-21T22:47:45.125Z,4.75
2018-04-21T22:50:13.019Z,4.95
2018-04-21T22:52:40.569Z,5.05
2018-04-21T22:55:08.069Z,5.07
2018-04-21T22:57:35.593Z,5.37
2018-04-21T23:00:03.153Z,6.07
2018-04-21T23:02:30.789Z,6.45
2018-04-21T23:04:58.301Z,6.25
2018-04-21T23:07:25.833Z,6.82
2018-04-21T23:09:53.337Z,7.10
2018-04-21T23:12:20.842Z,7.20
2018-04-21T23:14:48.379Z,6.68
2018-04-21T23:17:15.890Z,6.25
2018-04-21T23:19:43.421Z,5.90
2018-04-21T23:22:10.920Z,5.57
2018-04-21T23:24:38.913Z,6.55
2018-04-21T23:27:06.557Z,6.90
2018-04-21T23:29:34.231Z,6.30
2018-04-21T23:32:01.729Z,7.68
2018-04-21T23:34:29.252Z,6.30
2018-04-21T23:36:56.766Z,6.47
2018-04-21T23:39:24.305Z,6.55
2018-04-21T23:41:51.905Z,5.53
2018-04-21T23:44:19.448Z,5.68
2018-04-21T23:46:46.959Z,5.55
2018-04-21T23:49:14.483Z,5.60
2018-04-21T23:51:41.978Z,5.55
2018-04-21T23:54:09.509Z,6.05
2018-04-21T23:56:37.020Z,6.25
2018-04-21T23:59:04.545Z,5.90
